^^
Your Local Weather - Clay, NY Station Historical Data
Daily Summary for April 3, 2017 Units:  Metric    English   Both
« Previous Day
Next Day »
Daily Weekly Monthly Yearly Custom
  High: Low: Average:
Temperature: 15.1 °C 0.4 °C 8.1 °C
Dew Point: 5.6 °C -1.1 °C 1.7 °C
Humidity: 91% 44% 67%
Wind Speed: 11.3km/h 0km/h 3.5km/h
Wind Gust: 20.9km/h - -
Wind- - East
Pressure: 1017.8 hPa 1003.9 hPa -
Precipitation: 0.76 mm    
Historical Graphs
 
 
Tabular Data for April 3, 2017
Time Temperature Dew Point Pressure Wind Wind Speed Wind Gust Humidity Rainfall Rate (Hourly) solar
00:02 4.6 °C 0.7 °C 1017.8 hPa Calm     76% 0 mm 0 W/m2
00:08 4.6 °C 0.5 °C 1017.5 hPa Calm     75% 0 mm 0 W/m2
00:14 4.6 °C 0.5 °C 1017.5 hPa Calm     75% 0 mm 0 W/m2
00:20 4.5 °C 0.6 °C 1017.5 hPa Calm     76% 0 mm 0 W/m2
00:26 4.4 °C 1.1 °C 1017.8 hPa Calm     79% 0 mm 0 W/m2
00:32 4.3 °C 0.9 °C 1017.8 hPa Calm     79% 0 mm 0 W/m2
00:38 4.2 °C 1 °C 1017.8 hPa Calm     80% 0 mm 0 W/m2
00:44 4 °C 1.1 °C 1017.8 hPa Calm     81% 0 mm 0 W/m2
00:50 3.8 °C 0.9 °C 1017.8 hPa Calm     81% 0 mm 0 W/m2
00:56 3.6 °C 0.8 °C 1017.8 hPa Calm     82% 0 mm 0 W/m2
01:02 3.3 °C 0.6 °C 1017.8 hPa Calm     82% 0 mm 0 W/m2
01:08 3.2 °C 0.6 °C 1017.8 hPa Calm     83% 0 mm 0 W/m2
01:14 2.8 °C 0.4 °C 1017.5 hPa Calm     84% 0 mm 0 W/m2
01:20 2.6 °C 0.3 °C 1017.5 hPa Calm     85% 0 mm 0 W/m2
01:26 2.4 °C 0.2 °C 1017.5 hPa Calm     85% 0 mm 0 W/m2
01:32 2.4 °C 0.3 °C 1017.5 hPa Calm     86% 0 mm 0 W/m2
01:38 2.2 °C 0.1 °C 1017.2 hPa Calm     86% 0 mm 0 W/m2
01:44 2.1 °C 0 °C 1017.2 hPa Calm     86% 0 mm 0 W/m2
01:50 1.9 °C -0.2 °C 1017.2 hPa Calm     86% 0 mm 0 W/m2
01:56 1.8 °C -0.1 °C 1017.2 hPa Calm     87% 0 mm 0 W/m2
02:02 1.7 °C -0.2 °C 1017.2 hPa Calm     87% 0 mm 0 W/m2
02:08 1.6 °C -0.3 °C 1017.2 hPa Calm     87% 0 mm 0 W/m2
02:14 1.4 °C -0.5 °C 1016.8 hPa Calm     87% 0 mm 0 W/m2
02:20 1.3 °C -0.7 °C 1017.2 hPa Calm     87% 0 mm 0 W/m2
02:25 1.1 °C -0.9 °C 1016.8 hPa Calm     87% 0 mm 0 W/m2
02:32 0.9 °C -1.1 °C 1016.8 hPa Calm     87% 0 mm 0 W/m2
02:38 0.9 °C -0.9 °C 1016.8 hPa Calm     88% 0 mm 0 W/m2
02:44 0.9 °C -0.8 °C 1016.8 hPa Calm     88% 0 mm 0 W/m2
02:50 0.9 °C -0.9 °C 1016.8 hPa Calm     88% 0 mm 0 W/m2
02:56 0.9 °C -0.8 °C 1016.8 hPa Calm     88% 0 mm 0 W/m2
03:02 1 °C -0.6 °C 1016.5 hPa Calm     89% 0 mm 0 W/m2
03:08 0.9 °C -0.7 °C 1016.8 hPa Calm     89% 0 mm 0 W/m2
03:14 0.8 °C -0.9 °C 1016.8 hPa Calm     88% 0 mm 0 W/m2
03:20 0.8 °C -0.8 °C 1016.5 hPa Calm     89% 0 mm 0 W/m2
03:26 0.8 °C -0.8 °C 1016.5 hPa Calm     89% 0 mm 0 W/m2
03:32 0.8 °C -0.8 °C 1016.8 hPa Calm     89% 0 mm 0 W/m2
03:38 0.8 °C -0.8 °C 1016.5 hPa Calm     89% 0 mm 0 W/m2
03:44 0.8 °C -0.8 °C 1016.5 hPa Calm     89% 0 mm 0 W/m2
03:50 0.8 °C -0.6 °C 1016.5 hPa Calm     90% 0 mm 0 W/m2
03:56 0.8 °C -0.7 °C 1016.5 hPa Calm     90% 0 mm 0 W/m2
04:02 0.7 °C -0.8 °C 1016.5 hPa Calm     90% 0 mm 0 W/m2
04:08 0.6 °C -0.8 °C 1016.5 hPa Calm     90% 0 mm 0 W/m2
04:14 0.6 °C -0.9 °C 1016.5 hPa Calm     90% 0 mm 0 W/m2
04:20 0.6 °C -0.9 °C 1016.1 hPa Calm     90% 0 mm 0 W/m2
04:26 0.5 °C -0.9 °C 1016.1 hPa Calm     90% 0 mm 0 W/m2
04:32 0.4 °C -1 °C 1016.1 hPa Calm     90% 0 mm 0 W/m2
04:38 0.4 °C -1 °C 1016.1 hPa Calm     90% 0 mm 0 W/m2
04:44 0.4 °C -1 °C 1016.5 hPa Calm     90% 0 mm 0 W/m2
04:50 0.4 °C -1 °C 1016.5 hPa Calm     90% 0 mm 0 W/m2
04:56 0.4 °C -1 °C 1016.5 hPa Calm     90% 0 mm 0 W/m2
05:02 0.6 °C -0.8 °C 1016.1 hPa Calm     90% 0 mm 0 W/m2
05:08 0.8 °C -0.5 °C 1016.1 hPa Calm     91% 0 mm 0 W/m2
05:14 0.9 °C -0.4 °C 1016.5 hPa Calm     91% 0 mm 0 W/m2
05:20 1 °C -0.3 °C 1016.1 hPa Calm     91% 0 mm 0 W/m2
05:26 1 °C -0.3 °C 1016.5 hPa Calm     91% 0 mm 0 W/m2
05:32 1 °C -0.3 °C 1016.5 hPa Calm     91% 0 mm 0 W/m2
05:38 1 °C -0.4 °C 1016.5 hPa Calm     90% 0 mm 0 W/m2
05:44 1.1 °C -0.3 °C 1016.8 hPa Calm   1.6 km/h 90% 0 mm 0 W/m2
05:50 1.2 °C -0.2 °C 1016.8 hPa Calm     91% 0 mm 0 W/m2
05:56 1.2 °C -0.3 °C 1016.8 hPa Calm     90% 0 mm 0 W/m2
06:02 1.2 °C -0.2 °C 1016.8 hPa Calm     90% 0 mm 0 W/m2
06:08 1.3 °C -0.2 °C 1016.8 hPa Calm     90% 0 mm 0 W/m2
06:14 1.3 °C -0.1 °C 1016.8 hPa Calm     90% 0 mm 0 W/m2
06:20 1.3 °C -0.1 °C 1016.8 hPa Calm     90% 0 mm 0 W/m2
06:26 1.4 °C -0.1 °C 1017.2 hPa Calm     90% 0 mm 0 W/m2
06:32 1.4 °C 0 °C 1017.5 hPa Calm     90% 0 mm 0 W/m2
06:38 1.4 °C 0 °C 1017.5 hPa Calm     90% 0 mm 0 W/m2
06:44 1.4 °C 0 °C 1017.5 hPa Calm     90% 0 mm 0 W/m2
06:50 1.4 °C 0 °C 1017.5 hPa Calm     90% 0 mm 5 W/m2
06:56 1.4 °C 0 °C 1017.5 hPa Calm   1.6 km/h 90% 0 mm 9 W/m2
07:02 1.4 °C 0 °C 1017.5 hPa Calm     90% 0 mm 12 W/m2
07:08 1.5 °C 0.1 °C 1017.5 hPa Calm     90% 0 mm 18 W/m2
07:14 1.6 °C 0.2 °C 1017.5 hPa Calm     91% 0 mm 19 W/m2
07:20 1.6 °C 0.3 °C 1017.5 hPa Calm     91% 0 mm 23 W/m2
07:26 1.7 °C 0.4 °C 1017.5 hPa Calm     91% 0 mm 30 W/m2
07:32 1.8 °C 0.5 °C 1017.5 hPa Calm     91% 0 mm 35 W/m2
07:38 2 °C 0.7 °C 1017.5 hPa Calm   3.2 km/h 91% 0 mm 44 W/m2
07:44 2.1 °C 0.8 °C 1017.5 hPa Calm     91% 0 mm 56 W/m2
07:50 2.2 °C 0.8 °C 1017.8 hPa Calm     90% 0 mm 62 W/m2
07:56 2.5 °C 1 °C 1017.8 hPa Calm     90% 0 mm 72 W/m2
08:02 2.7 °C 1.1 °C 1017.8 hPa Calm   1.6 km/h 89% 0 mm 84 W/m2
08:08 2.9 °C 1.1 °C 1017.8 hPa WNW 1.6 km/h 1.6 km/h 88% 0 mm 100 W/m2
08:14 3.1 °C 1.2 °C 1017.8 hPa Calm   1.6 km/h 87% 0 mm 118 W/m2
08:20 3.4 °C 1.1 °C 1017.8 hPa Calm     85% 0 mm 155 W/m2
08:26 3.8 °C 1.3 °C 1017.8 hPa Calm   1.6 km/h 84% 0 mm 134 W/m2
08:32 4.1 °C 1.4 °C 1017.8 hPa SSE 1.6 km/h 3.2 km/h 83% 0 mm 111 W/m2
08:38 4.2 °C 1.2 °C 1017.8 hPa SSE 1.6 km/h 3.2 km/h 81% 0 mm 105 W/m2
08:44 4.3 °C 1.1 °C 1017.8 hPa Calm   3.2 km/h 80% 0 mm 104 W/m2
08:50 4.4 °C 1.2 °C 1017.8 hPa SSE 1.6 km/h 1.6 km/h 80% 0 mm 107 W/m2
08:56 4.5 °C 1.3 °C 1017.8 hPa SSE 1.6 km/h 1.6 km/h 80% 0 mm 105 W/m2
09:02 4.6 °C 1.1 °C 1017.8 hPa ENE 1.6 km/h 3.2 km/h 78% 0 mm 109 W/m2
09:08 4.7 °C 1.2 °C 1017.8 hPa ENE 1.6 km/h 3.2 km/h 78% 0 mm 123 W/m2
09:14 4.8 °C 1.3 °C 1017.8 hPa ENE 1.6 km/h 4.8 km/h 78% 0 mm 155 W/m2
09:20 4.9 °C 1.2 °C 1017.8 hPa ENE 3.2 km/h 3.2 km/h 77% 0 mm 174 W/m2
09:26 5.2 °C 1.7 °C 1017.8 hPa ENE 1.6 km/h 3.2 km/h 78% 0 mm 195 W/m2
09:32 5.3 °C 1.4 °C 1017.8 hPa NE 1.6 km/h 4.8 km/h 76% 0 mm 211 W/m2
09:34 5.3 °C 1.4 °C 1017.8 hPa NE 1.6 km/h 4.8 km/h 76% 0 mm 218 W/m2
09:40 5.6 °C 1.7 °C 1017.5 hPa NE 3.2 km/h 3.2 km/h 76% 0 mm 225 W/m2
09:46 5.8 °C 1.9 °C 1017.5 hPa Calm   3.2 km/h 76% 0 mm 229 W/m2
09:52 5.8 °C 1.7 °C 1017.5 hPa ENE 1.6 km/h 1.6 km/h 75% 0 mm 214 W/m2
09:58 5.9 °C 1.8 °C 1017.5 hPa ENE 1.6 km/h 3.2 km/h 75% 0 mm 207 W/m2
10:04 6.1 °C 2.2 °C 1017.5 hPa ENE 3.2 km/h 4.8 km/h 76% 0 mm 218 W/m2
10:10 6.3 °C 2.4 °C 1017.5 hPa ENE 1.6 km/h 3.2 km/h 76% 0 mm 234 W/m2
10:16 6.4 °C 2.2 °C 1017.5 hPa NE 1.6 km/h 4.8 km/h 74% 0 mm 255 W/m2
10:22 6.6 °C 1.9 °C 1017.5 hPa ENE 3.2 km/h 3.2 km/h 72% 0 mm 281 W/m2
10:28 6.9 °C 2.2 °C 1017.2 hPa NE 1.6 km/h 6.4 km/h 72% 0 mm 281 W/m2
10:34 7.2 °C 2.1 °C 1017.2 hPa NNE 1.6 km/h 4.8 km/h 70% 0 mm 269 W/m2
10:40 7.4 °C 1.9 °C 1017.2 hPa ENE 3.2 km/h 6.4 km/h 68% 0 mm 295 W/m2
10:46 7.6 °C 2.1 °C 1016.8 hPa ENE 3.2 km/h 6.4 km/h 68% 0 mm 318 W/m2
10:52 7.9 °C 2.3 °C 1016.8 hPa East 3.2 km/h 8 km/h 68% 0 mm 339 W/m2
10:58 8 °C 2.2 °C 1016.8 hPa NNE 4.8 km/h 8 km/h 67% 0 mm 360 W/m2
11:04 8.2 °C 2 °C 1016.8 hPa ENE 4.8 km/h 4.8 km/h 65% 0 mm 418 W/m2
11:10 8.4 °C 1.9 °C 1016.8 hPa East 6.4 km/h 6.4 km/h 64% 0 mm 360 W/m2
11:16 8.6 °C 1.9 °C 1016.8 hPa NE 4.8 km/h 6.4 km/h 63% 0 mm 353 W/m2
11:22 8.8 °C 1.9 °C 1016.8 hPa ENE 4.8 km/h 4.8 km/h 62% 0 mm 415 W/m2
11:28 9.2 °C 2.3 °C 1016.5 hPa North 4.8 km/h 6.4 km/h 62% 0 mm 376 W/m2
11:34 9.6 °C 2.4 °C 1016.1 hPa ENE 3.2 km/h 4.8 km/h 61% 0 mm 390 W/m2
11:40 9.7 °C 2.1 °C 1016.1 hPa East 4.8 km/h 4.8 km/h 59% 0 mm 360 W/m2
11:46 9.8 °C 1.9 °C 1016.1 hPa ENE 3.2 km/h 4.8 km/h 58% 0 mm 425 W/m2
11:52 10.1 °C 2.7 °C 1016.1 hPa SE 3.2 km/h 3.2 km/h 60% 0 mm 445 W/m2
11:58 10.2 °C 1.3 °C 1016.1 hPa ENE 4.8 km/h 8 km/h 54% 0 mm 540 W/m2
12:04 10.4 °C 1.5 °C 1015.8 hPa ESE 4.8 km/h 6.4 km/h 54% 0 mm 526 W/m2
12:10 10.8 °C 2.2 °C 1015.8 hPa NE 3.2 km/h 3.2 km/h 55% 0 mm 490 W/m2
12:16 11 °C 1.8 °C 1015.8 hPa SSE 3.2 km/h 6.4 km/h 53% 0 mm 503 W/m2
12:22 10.9 °C 1.4 °C 1015.5 hPa East 4.8 km/h 6.4 km/h 52% 0 mm 464 W/m2
12:28 11.2 °C 2.9 °C 1015.5 hPa SE 4.8 km/h 8 km/h 57% 0 mm 378 W/m2
12:34 11.3 °C 2.3 °C 1015.5 hPa SE 4.8 km/h 4.8 km/h 54% 0 mm 374 W/m2
12:40 11.5 °C 2 °C 1015.1 hPa NE 3.2 km/h 4.8 km/h 52% 0 mm 380 W/m2
12:46 11.7 °C 1.6 °C 1015.1 hPa ENE 4.8 km/h 8 km/h 50% 0 mm 387 W/m2
12:52 11.7 °C 1.8 °C 1015.1 hPa ESE 4.8 km/h 6.4 km/h 51% 0 mm 424 W/m2
12:58 12.1 °C 1.9 °C 1015.1 hPa ESE 3.2 km/h 6.4 km/h 50% 0 mm 417 W/m2
13:04 12.1 °C 1.7 °C 1014.8 hPa ENE 4.8 km/h 4.8 km/h 49% 0 mm 524 W/m2
13:10 12.6 °C 2.1 °C 1014.8 hPa ESE 4.8 km/h 4.8 km/h 49% 0 mm 626 W/m2
13:16 13.1 °C 2.6 °C 1014.4 hPa ESE 4.8 km/h 11.3 km/h 49% 0 mm 744 W/m2
13:22 13.1 °C 2.8 °C 1014.4 hPa East 6.4 km/h 9.7 km/h 50% 0 mm 540 W/m2
13:28 13.1 °C 2.1 °C 1014.1 hPa ENE 4.8 km/h 9.7 km/h 47% 0 mm 643 W/m2
13:34 13.6 °C 2.2 °C 1014.1 hPa NE 4.8 km/h 6.4 km/h 46% 0 mm 452 W/m2
13:40 13.6 °C 2.7 °C 1014.1 hPa ENE 4.8 km/h 6.4 km/h 48% 0 mm 455 W/m2
13:46 13.4 °C 2.1 °C 1014.1 hPa NE 4.8 km/h 6.4 km/h 46% 0 mm 373 W/m2
13:52 13.4 °C 2.7 °C 1014.1 hPa NE 4.8 km/h 6.4 km/h 48% 0 mm 338 W/m2
13:58 12.8 °C 2.4 °C 1014.1 hPa NNE 4.8 km/h 6.4 km/h 49% 0 mm 301 W/m2
14:04 12.4 °C 2.8 °C 1013.4 hPa East 6.4 km/h 9.7 km/h 52% 0 mm 299 W/m2
14:10 12.2 °C 2.9 °C 1013.4 hPa ENE 6.4 km/h 6.4 km/h 53% 0 mm 339 W/m2
14:16 12.4 °C 2.5 °C 1013.1 hPa NE 4.8 km/h 6.4 km/h 51% 0 mm 373 W/m2
14:22 12.6 °C 2.4 °C 1013.1 hPa ENE 4.8 km/h 11.3 km/h 50% 0 mm 397 W/m2
14:28 12.9 °C 3 °C 1013.1 hPa NE 6.4 km/h 11.3 km/h 51% 0 mm 448 W/m2
14:34 13 °C 2.2 °C 1012.8 hPa East 4.8 km/h 9.7 km/h 48% 0 mm 434 W/m2
14:40 13.1 °C 2.6 °C 1012.8 hPa NE 6.4 km/h 6.4 km/h 49% 0 mm 464 W/m2
14:46 13.2 °C 3.2 °C 1012.8 hPa ENE 6.4 km/h 8 km/h 51% 0 mm 378 W/m2
14:52 13.3 °C 3.1 °C 1012.4 hPa NNE 8 km/h 8 km/h 50% 0 mm 452 W/m2
14:58 13.4 °C 3.2 °C 1012.1 hPa NE 8 km/h 8 km/h 50% 0 mm 378 W/m2
15:04 13.4 °C 2.9 °C 1011.7 hPa East 8 km/h 16.1 km/h 49% 0 mm 290 W/m2
15:10 13.6 °C 3.1 °C 1012.1 hPa East 8 km/h 8 km/h 49% 0 mm 415 W/m2
15:16 13.6 °C 2.7 °C 1011.4 hPa ENE 8 km/h 8 km/h 48% 0 mm 313 W/m2
15:22 13.6 °C 2.7 °C 1011.4 hPa NNE 8 km/h 8 km/h 48% 0 mm 299 W/m2
15:28 13.8 °C 3.3 °C 1011.4 hPa ESE 4.8 km/h 8 km/h 49% 0 mm 315 W/m2
15:34 13.9 °C 3.4 °C 1011.1 hPa East 4.8 km/h 11.3 km/h 49% 0 mm 396 W/m2
15:40 13.9 °C 3.1 °C 1011.1 hPa NNE 6.4 km/h 11.3 km/h 48% 0 mm 308 W/m2
15:46 13.7 °C 2.6 °C 1010.7 hPa East 8 km/h 16.1 km/h 47% 0 mm 246 W/m2
15:52 13.7 °C 3.1 °C 1010.7 hPa East 9.7 km/h 9.7 km/h 49% 0 mm 272 W/m2
15:58 14.1 °C 4.1 °C 1010.7 hPa NE 6.4 km/h 9.7 km/h 51% 0 mm 408 W/m2
16:10 14.1 °C 2.7 °C 1010.4 hPa ENE 8 km/h 8 km/h 46% 0 mm 308 W/m2
16:16 14.3 °C 3.7 °C 1010.4 hPa ENE 8 km/h 14.5 km/h 49% 0 mm 415 W/m2
16:22 14.7 °C 2.9 °C 1010 hPa ENE 6.4 km/h 8 km/h 45% 0 mm 301 W/m2
16:28 14.8 °C 3.6 °C 1010 hPa East 8 km/h 11.3 km/h 47% 0 mm 330 W/m2
16:36 15.1 °C 3.3 °C 1009.7 hPa ENE 8 km/h 9.7 km/h 45% 0 mm 278 W/m2
16:42 14.9 °C 3.1 °C 1009.4 hPa East 6.4 km/h 14.5 km/h 45% 0 mm 364 W/m2
16:48 14.8 °C 3 °C 1009.4 hPa NNE 9.7 km/h 14.5 km/h 45% 0 mm 264 W/m2
16:54 14.8 °C 2.6 °C 1009 hPa NE 9.7 km/h 17.7 km/h 44% 0 mm 223 W/m2
17:00 14.7 °C 2.8 °C 1009 hPa East 11.3 km/h 11.3 km/h 45% 0 mm 165 W/m2
17:06 14.6 °C 2.7 °C 1009 hPa East 9.7 km/h 11.3 km/h 45% 0 mm 171 W/m2
17:12 14.5 °C 3 °C 1008.7 hPa ESE 9.7 km/h 12.9 km/h 46% 0 mm 153 W/m2
17:18 14.5 °C 2.7 °C 1008.7 hPa ESE 8 km/h 16.1 km/h 45% 0 mm 213 W/m2
17:24 14.6 °C 2.8 °C 1008.7 hPa East 9.7 km/h 17.7 km/h 45% 0 mm 230 W/m2
17:30 14.7 °C 2.6 °C 1008.4 hPa NE 9.7 km/h 11.3 km/h 44% 0 mm 211 W/m2
17:36 14.8 °C 2.9 °C 1008.4 hPa ENE 8 km/h 11.3 km/h 45% 0 mm 181 W/m2
17:42 14.8 °C 3.3 °C 1008.4 hPa ENE 6.4 km/h 12.9 km/h 46% 0 mm 134 W/m2
17:48 14.6 °C 2.8 °C 1008.4 hPa East 8 km/h 12.9 km/h 45% 0 mm 121 W/m2
17:54 14.5 °C 3 °C 1008 hPa ENE 9.7 km/h 16.1 km/h 46% 0 mm 125 W/m2
18:00 14.5 °C 3 °C 1008 hPa East 9.7 km/h 20.9 km/h 46% 0 mm 181 W/m2
18:06 14.6 °C 3.1 °C 1008 hPa East 8 km/h 20.9 km/h 46% 0 mm 146 W/m2
18:12 14.6 °C 3.4 °C 1008 hPa East 4.8 km/h 8 km/h 47% 0 mm 100 W/m2
18:18 14.6 °C 3.4 °C 1008 hPa ENE 4.8 km/h 8 km/h 47% 0 mm 77 W/m2
18:24 14.4 °C 3.3 °C 1008 hPa NE 4.8 km/h 12.9 km/h 47% 0 mm 67 W/m2
18:30 14.3 °C 3.4 °C 1007.7 hPa ENE 4.8 km/h 4.8 km/h 48% 0 mm 63 W/m2
18:36 14.2 °C 3.3 °C 1007.7 hPa East 4.8 km/h 9.7 km/h 48% 0 mm 60 W/m2
18:42 14.2 °C 3.3 °C 1007.7 hPa East 4.8 km/h 4.8 km/h 48% 0 mm 53 W/m2
18:48 14.1 °C 3.6 °C 1007.7 hPa East 4.8 km/h 6.4 km/h 49% 0 mm 46 W/m2
18:54 14.1 °C 3.3 °C 1007.3 hPa East 6.4 km/h 8 km/h 48% 0 mm 33 W/m2
19:00 14.1 °C 3.5 °C 1007.3 hPa ENE 4.8 km/h 4.8 km/h 49% 0 mm 26 W/m2
19:06 13.9 °C 3.1 °C 1007.3 hPa East 4.8 km/h 12.9 km/h 48% 0 mm 21 W/m2
19:12 13.8 °C 3 °C 1007.3 hPa East 6.4 km/h 6.4 km/h 48% 0 mm 16 W/m2
19:18 13.7 °C 3.5 °C 1007.3 hPa ENE 4.8 km/h 8 km/h 50% 0 mm 9 W/m2
19:24 13.6 °C 3.1 °C 1007.3 hPa East 4.8 km/h 8 km/h 49% 0 mm 5 W/m2
19:30 13.4 °C 2.9 °C 1007.3 hPa East 6.4 km/h 9.7 km/h 49% 0 mm 0 W/m2
19:36 13.3 °C 3.1 °C 1007.3 hPa ENE 6.4 km/h 11.3 km/h 50% 0 mm 0 W/m2
19:42 13.3 °C 3.4 °C 1007.3 hPa ENE 8 km/h 14.5 km/h 51% 0 mm 0 W/m2
19:48 13.3 °C 3.4 °C 1007 hPa East 6.4 km/h 14.5 km/h 51% 0 mm 0 W/m2
19:54 13.3 °C 3.3 °C 1006.7 hPa ENE 6.4 km/h 12.9 km/h 51% 0 mm 0 W/m2
20:00 13.2 °C 3.3 °C 1006.7 hPa NE 6.4 km/h 9.7 km/h 51% 0 mm 0 W/m2
20:06 13.1 °C 3.2 °C 1006.7 hPa East 4.8 km/h 12.9 km/h 51% 0 mm 0 W/m2
20:12 13.1 °C 3.2 °C 1006.7 hPa East 8 km/h 8 km/h 51% 0 mm 0 W/m2
20:18 13.1 °C 3.4 °C 1006.3 hPa ESE 8 km/h 17.7 km/h 52% 0 mm 0 W/m2
20:24 13.1 °C 3.2 °C 1006.3 hPa East 9.7 km/h 12.9 km/h 51% 0 mm 0 W/m2
20:30 12.9 °C 3.6 °C 1006.3 hPa ENE 8 km/h 12.9 km/h 53% 0 mm 0 W/m2
20:36 12.8 °C 3.2 °C 1006.3 hPa ENE 6.4 km/h 12.9 km/h 52% 0 mm 0 W/m2
20:42 12.8 °C 3.2 °C 1006.3 hPa East 8 km/h 11.3 km/h 52% 0 mm 0 W/m2
20:48 12.8 °C 3.2 °C 1006 hPa ENE 8 km/h 12.9 km/h 52% 0 mm 0 W/m2
20:54 12.7 °C 3.1 °C 1006 hPa ENE 6.4 km/h 11.3 km/h 52% 0 mm 0 W/m2
21:00 12.7 °C 3.1 °C 1006 hPa East 8 km/h 8 km/h 52% 0 mm 0 W/m2
21:06 12.6 °C 3 °C 1006 hPa SE 6.4 km/h 8 km/h 52% 0 mm 0 W/m2
21:12 12.6 °C 3 °C 1005.6 hPa ENE 8 km/h 8 km/h 52% 0 mm 0 W/m2
21:18 12.6 °C 3 °C 1005.6 hPa NE 6.4 km/h 8 km/h 52% 0 mm 0 W/m2
21:24 12.6 °C 3.2 °C 1005.6 hPa East 8 km/h 8 km/h 53% 0 mm 0 W/m2
21:30 12.5 °C 3.2 °C 1005.6 hPa ENE 6.4 km/h 12.9 km/h 53% 0 mm 0 W/m2
21:36 12.6 °C 2.9 °C 1005.6 hPa East 8 km/h 16.1 km/h 52% 0 mm 0 W/m2
21:42 12.6 °C 2.9 °C 1005.6 hPa ESE 8 km/h 8 km/h 52% 0 mm 0 W/m2
21:48 12.6 °C 3.2 °C 1005.6 hPa East 8 km/h 8 km/h 53% 0 mm 0 W/m2
21:54 12.4 °C 3.1 °C 1005.6 hPa ESE 6.4 km/h 12.9 km/h 53% 0 mm 0 W/m2
22:00 12.4 °C 3.1 °C 1005.3 hPa ENE 6.4 km/h 11.3 km/h 53% 0 mm 0 W/m2
22:06 12.4 °C 3.1 °C 1005.3 hPa SSE 6.4 km/h 11.3 km/h 53% 0 mm 0 W/m2
22:12 12.4 °C 3.1 °C 1005.3 hPa East 4.8 km/h 8 km/h 53% 0 mm 0 W/m2
22:18 12.3 °C 3 °C 1005.3 hPa East 6.4 km/h 12.9 km/h 53% 0 mm 0 W/m2
22:24 12.2 °C 3.4 °C 1005.3 hPa East 6.4 km/h 11.3 km/h 55% 0 mm 0 W/m2
22:30 12.2 °C 3.1 °C 1005 hPa East 6.4 km/h 6.4 km/h 54% 0 mm 0 W/m2
22:36 12.1 °C 3.3 °C 1005 hPa ESE 4.8 km/h 6.4 km/h 55% 0 mm 0 W/m2
22:42 12 °C 3.2 °C 1004.6 hPa SE 4.8 km/h 4.8 km/h 55% 0 mm 0 W/m2
22:48 12 °C 3.2 °C 1004.6 hPa SSE 6.4 km/h 11.3 km/h 55% 0 mm 0 W/m2
22:54 11.9 °C 3.2 °C 1004.6 hPa ESE 6.4 km/h 8 km/h 55% 0 mm 0 W/m2
23:00 11.8 °C 3.3 °C 1004.6 hPa ESE 4.8 km/h 4.8 km/h 56% 0 mm 0 W/m2
23:06 11.6 °C 3.4 °C 1004.3 hPa ENE 4.8 km/h 6.4 km/h 57% 0 mm 0 W/m2
23:12 11.4 °C 3.4 °C 1004.6 hPa ESE 3.2 km/h 4.8 km/h 58% 0 mm 0 W/m2
23:18 11.3 °C 3.8 °C 1004.6 hPa ENE 3.2 km/h 6.4 km/h 60% 0 mm 0 W/m2
23:24 11.2 °C 4.4 °C 1004.3 hPa ENE 4.8 km/h 4.8 km/h 63% 0 mm 0 W/m2
23:32 10.7 °C 5 °C 1003.9 hPa ENE 3.2 km/h 8 km/h 68% 0 mm 0 W/m2
23:38 10.4 °C 5.3 °C 1003.9 hPa ENE 4.8 km/h 8 km/h 71% 0 mm 0 W/m2
23:44 10.1 °C 5.3 °C 1003.9 hPa ENE 3.2 km/h 4.8 km/h 72% 0 mm 0 W/m2
23:50 9.9 °C 5.5 °C 1003.9 hPa ENE 1.6 km/h 1.6 km/h 74% 0 mm 0 W/m2
23:56 9.6 °C 5.6 °C 1003.9 hPa ENE 1.6 km/h 4.8 km/h 76% 1.52 mm 0 W/m2
Country Meadow, Clay, NY, USA
Compliments of Weather Underground - 2 mb